Time;durP1;ratioP1;P1;durP2;ratioP2;P2;SDS_P1;SDS_P2;PMS_P1;PMS_P2;Temp;Humidity;BMP_temperature;BMP_pressure;BME280_temperature;BME280_humidity;BME280_pressure;Samples;Min_cycle;Max_cycle;Signal;HPM_P1;HPM_P2
2020/12/23 00:00:21;;;;;;;25.05;15.20;;;;;;;-2.32;78.09;100200.47;1684077;84;21598;-60
2020/12/23 00:02:50;;;;;;;24.85;14.53;;;;;;;-2.27;78.07;100204.78;1677526;84;21158;-60
2020/12/23 00:05:17;;;;;;;24.25;14.83;;;;;;;-2.22;77.94;100201.05;1699378;83;21223;-60
2020/12/23 00:07:45;;;;;;;23.67;12.95;;;;;;;-2.20;78.02;100194.56;1717187;83;21173;-61
2020/12/23 00:10:12;;;;;;;21.73;12.45;;;;;;;-2.22;77.93;100190.39;1707797;83;21266;-60
2020/12/23 00:12:39;;;;;;;21.65;12.98;;;;;;;-2.20;77.74;100197.72;1697497;83;21288;-60
2020/12/23 00:15:07;;;;;;;22.93;14.00;;;;;;;-2.20;77.92;100197.72;1711083;83;21200;-60
2020/12/23 00:17:35;;;;;;;20.08;12.40;;;;;;;-2.17;77.91;100198.20;1713339;83;21166;-60
2020/12/23 00:20:04;;;;;;;19.62;11.78;;;;;;;-2.19;77.57;100192.19;1708506;83;21161;-60
2020/12/23 00:22:31;;;;;;;20.20;11.85;;;;;;;-2.17;77.49;100188.03;1696040;83;21203;-60
2020/12/23 00:24:58;;;;;;;20.27;12.23;;;;;;;-2.16;77.51;100183.03;1694466;83;21319;-61
2020/12/23 00:27:25;;;;;;;21.27;12.15;;;;;;;-2.18;77.48;100181.02;1713754;83;21157;-60
2020/12/23 00:29:52;;;;;;;19.07;11.33;;;;;;;-2.15;77.50;100172.66;1696399;83;21193;-61
2020/12/23 00:32:20;;;;;;;20.45;12.30;;;;;;;-2.17;77.41;100162.19;1711857;83;21161;-61
2020/12/23 00:34:47;;;;;;;17.70;10.80;;;;;;;-2.16;77.50;100161.16;1696335;83;21355;-60
2020/12/23 00:37:14;;;;;;;18.42;10.88;;;;;;;-2.22;77.56;100149.88;1711458;83;21200;-60
2020/12/23 00:39:42;;;;;;;14.90;9.13;;;;;;;-2.22;77.51;100150.38;1708878;83;21299;-60
2020/12/23 00:42:09;;;;;;;16.10;9.55;;;;;;;-2.21;77.09;100139.55;1715255;83;21190;-60
2020/12/23 00:44:36;;;;;;;15.25;8.75;;;;;;;-2.22;77.26;100144.55;1690021;84;21239;-60
2020/12/23 00:47:03;;;;;;;17.32;10.50;;;;;;;-2.24;77.04;100133.75;1685662;84;21191;-61
2020/12/23 00:49:31;;;;;;;14.65;8.65;;;;;;;-2.24;77.39;100135.08;1705036;83;21294;-60
2020/12/23 00:51:59;;;;;;;17.42;10.08;;;;;;;-2.25;77.16;100129.41;1712685;83;21161;-60
2020/12/23 00:54:27;;;;;;;19.90;10.80;;;;;;;-2.24;77.38;100125.24;1717110;83;21299;-60
2020/12/23 00:56:56;;;;;;;17.77;11.25;;;;;;;-2.22;77.35;100133.88;1715527;83;21129;-60
2020/12/23 00:59:23;;;;;;;17.87;11.12;;;;;;;-2.25;77.51;100137.41;1700843;83;21597;-60
2020/12/23 01:01:58;;;;;;;19.95;11.90;;;;;;;-2.26;77.56;100126.41;1717077;83;21613;-61
2020/12/23 01:04:26;;;;;;;22.48;12.70;;;;;;;-2.23;77.59;100125.55;1716885;83;21157;-60
2020/12/23 01:06:54;;;;;;;25.45;14.85;;;;;;;-2.26;78.10;100121.08;1715692;83;21169;-60
2020/12/23 01:09:21;;;;;;;25.20;13.88;;;;;;;-2.27;78.29;100108.27;1720279;83;21597;-61
2020/12/23 01:11:49;;;;;;;26.17;15.08;;;;;;;-2.21;78.30;100103.55;1720800;83;21180;-60
2020/12/23 01:14:18;;;;;;;27.45;15.58;;;;;;;-2.26;78.56;100097.08;1727020;82;21296;-61
2020/12/23 01:16:45;;;;;;;25.97;15.35;;;;;;;-2.33;78.82;100094.80;1703667;83;21579;-61
2020/12/23 01:19:13;;;;;;;25.55;14.38;;;;;;;-2.35;79.02;100091.00;1710223;83;21161;-61
2020/12/23 01:21:44;;;;;;;24.43;15.00;;;;;;;-2.33;79.17;100082.81;1710850;83;21137;-60
2020/12/23 01:24:12;;;;;;;24.30;13.22;;;;;;;-2.33;79.21;100074.30;1722816;83;21510;-61
2020/12/23 01:26:39;;;;;;;23.95;13.15;;;;;;;-2.31;79.07;100074.14;1704675;83;21561;-60
2020/12/23 01:29:07;;;;;;;24.37;14.25;;;;;;;-2.26;78.95;100074.41;1715136;83;21157;-60
2020/12/23 01:31:34;;;;;;;21.68;12.18;;;;;;;-2.26;79.07;100065.91;1729609;82;21565;-60
2020/12/23 01:34:04;;;;;;;22.17;12.60;;;;;;;-2.29;78.98;100063.61;1708008;83;21291;-61
2020/12/23 01:36:32;;;;;;;21.20;12.75;;;;;;;-2.30;78.95;100059.27;1694917;83;21210;-60
2020/12/23 01:38:59;;;;;;;21.65;12.53;;;;;;;-2.33;79.22;100054.81;1702344;83;21153;-60
2020/12/23 01:41:26;;;;;;;19.25;11.70;;;;;;;-2.33;79.22;100053.47;1722033;83;21637;-60
2020/12/23 01:43:55;;;;;;;21.85;13.70;;;;;;;-2.33;79.22;100050.81;1716666;83;21318;-61
2020/12/23 01:46:30;;;;;;;18.55;12.40;;;;;;;-2.31;79.30;100047.48;1717965;83;21341;-60
2020/12/23 01:49:01;;;;;;;20.17;12.33;;;;;;;-2.30;79.30;100044.61;1706803;82;21181;-60
2020/12/23 01:51:28;;;;;;;18.57;11.20;;;;;;;-2.31;79.12;100034.14;1720865;83;21173;-60
2020/12/23 01:53:55;;;;;;;18.95;11.33;;;;;;;-2.35;79.25;100032.84;1715533;83;21138;-61
2020/12/23 01:56:23;;;;;;;18.60;11.50;;;;;;;-2.33;79.14;100039.64;1721297;82;21175;-61
2020/12/23 01:58:50;;;;;;;15.43;10.10;;;;;;;-2.34;79.25;100037.17;1708036;83;21620;-60
2020/12/23 02:01:20;;;;;;;19.00;11.10;;;;;;;-2.31;79.04;100027.47;1722941;83;21192;-60
2020/12/23 02:03:48;;;;;;;15.38;9.58;;;;;;;-2.29;79.05;100032.11;1722850;83;21189;-60
2020/12/23 02:06:15;;;;;;;15.20;9.80;;;;;;;-2.31;78.82;100022.98;1715627;82;21185;-60
2020/12/23 02:08:43;;;;;;;15.28;10.08;;;;;;;-2.24;78.67;100017.73;1699256;84;21157;-60
2020/12/23 02:11:13;;;;;;;17.23;9.50;;;;;;;-2.28;78.78;100010.61;1709431;84;21753;-60
2020/12/23 02:13:44;;;;;;;14.63;8.85;;;;;;;-2.23;78.65;100016.73;1707403;84;21145;-60
2020/12/23 02:16:12;;;;;;;18.10;10.30;;;;;;;-2.24;78.61;100011.07;1707458;84;21198;-59
2020/12/23 02:18:41;;;;;;;14.95;9.50;;;;;;;-2.24;78.74;100012.41;1709217;84;21126;-59
2020/12/23 02:21:10;;;;;;;15.32;9.35;;;;;;;-2.22;78.76;100006.37;1707213;82;21565;-60
2020/12/23 02:23:40;;;;;;;15.78;9.20;;;;;;;-2.20;78.55;100000.36;1689094;84;21153;-61
2020/12/23 02:26:07;;;;;;;17.42;9.70;;;;;;;-2.19;78.47;99992.66;1700179;82;21326;-60
2020/12/23 02:28:35;;;;;;;14.18;8.88;;;;;;;-2.23;78.60;99993.53;1636024;88;21122;-60
2020/12/23 02:31:03;;;;;;;14.35;8.70;;;;;;;-2.23;78.53;99991.40;1670957;85;21190;-60
2020/12/23 02:33:31;;;;;;;14.65;8.03;;;;;;;-2.15;78.36;99996.62;1698336;84;21165;-60
2020/12/23 02:35:58;;;;;;;14.60;8.33;;;;;;;-2.15;78.19;99993.45;1707308;82;21118;-60
2020/12/23 02:38:25;;;;;;;14.23;8.70;;;;;;;-2.12;78.28;99996.25;1710080;83;21937;-60
2020/12/23 02:40:52;;;;;;;15.25;9.10;;;;;;;-2.15;78.31;99993.95;1702936;82;21558;-60
2020/12/23 02:43:19;;;;;;;16.62;8.80;;;;;;;-2.08;78.13;99995.70;1625703;87;21213;-60
2020/12/23 02:45:46;;;;;;;15.75;9.38;;;;;;;-2.07;78.04;99991.20;1689575;84;21720;-60
2020/12/23 02:48:15;;;;;;;15.65;9.25;;;;;;;-2.05;78.15;99992.66;1688162;84;21663;-60
2020/12/23 02:50:42;;;;;;;16.05;8.90;;;;;;;-2.07;78.25;99987.20;1701108;84;21307;-60
2020/12/23 02:53:10;;;;;;;17.82;10.70;;;;;;;-2.08;78.17;99978.37;1699776;84;21185;-60
2020/12/23 02:55:38;;;;;;;18.98;10.20;;;;;;;-2.05;78.39;99982.50;1696435;82;21486;-61
2020/12/23 02:58:05;;;;;;;18.35;9.58;;;;;;;-2.06;78.45;99982.20;1704982;84;21569;-60
2020/12/23 03:00:33;;;;;;;17.98;10.50;;;;;;;-2.01;78.36;99977.12;1708896;84;21188;-60
2020/12/23 03:03:00;;;;;;;15.93;9.30;;;;;;;-2.00;78.45;99980.12;1686349;84;21617;-60
2020/12/23 03:05:27;;;;;;;18.25;9.43;;;;;;;-2.04;78.43;99974.83;1669236;83;21337;-59
2020/12/23 03:07:55;;;;;;;17.82;10.20;;;;;;;-2.01;78.25;99954.44;1717316;83;21141;-59
2020/12/23 03:10:22;;;;;;;19.55;10.82;;;;;;;-2.04;78.30;99958.81;1708688;83;21195;-60
2020/12/23 03:12:50;;;;;;;20.02;11.88;;;;;;;-2.04;78.57;99955.65;1724536;83;21151;-59
2020/12/23 03:15:17;;;;;;;18.87;10.43;;;;;;;-1.99;78.49;99958.27;1692263;82;21694;-59
2020/12/23 03:17:44;;;;;;;17.95;9.33;;;;;;;-2.00;78.47;99952.11;1690939;83;21596;-60
2020/12/23 03:20:12;;;;;;;17.20;9.70;;;;;;;-1.91;78.22;99958.18;1702963;83;21275;-59
2020/12/23 03:22:39;;;;;;;19.23;10.98;;;;;;;-1.93;78.05;99951.68;1713791;83;21161;-60
2020/12/23 03:25:06;;;;;;;19.15;11.60;;;;;;;-1.91;78.24;99954.98;1718985;83;21642;-60
2020/12/23 03:27:34;;;;;;;21.40;12.18;;;;;;;-1.89;78.16;99947.63;1709508;83;21177;-60
2020/12/23 03:30:01;;;;;;;20.43;11.93;;;;;;;-1.91;78.18;99952.84;1716404;83;21542;-60
2020/12/23 03:32:29;;;;;;;19.82;11.20;;;;;;;-1.89;78.17;99947.63;1715475;83;21585;-61
2020/12/23 03:34:56;;;;;;;20.62;11.65;;;;;;;-1.86;78.06;99943.75;1716061;83;21597;-61
2020/12/23 03:37:23;;;;;;;17.65;9.78;;;;;;;-1.82;78.04;99947.20;1712964;83;21173;-61
2020/12/23 03:39:50;;;;;;;17.12;10.38;;;;;;;-1.78;77.90;99950.33;1711578;83;21149;-60
2020/12/23 03:42:17;;;;;;;17.37;10.28;;;;;;;-1.81;77.74;99946.70;1689786;83;21157;-60
2020/12/23 03:44:45;;;;;;;20.68;10.93;;;;;;;-1.82;77.81;99943.70;1704524;83;21292;-61
2020/12/23 03:47:12;;;;;;;18.70;9.43;;;;;;;-1.79;77.67;99946.00;1704507;83;21579;-60
2020/12/23 03:49:42;;;;;;;18.05;9.85;;;;;;;-1.77;77.82;99939.98;1718224;83;21604;-60
2020/12/23 03:52:09;;;;;;;20.00;11.00;;;;;;;-1.79;77.76;99945.49;1683120;83;21184;-61
2020/12/23 03:54:36;;;;;;;17.62;10.18;;;;;;;-1.77;77.81;99946.12;1712884;83;21165;-60
2020/12/23 03:57:04;;;;;;;18.48;10.50;;;;;;;-1.81;77.76;99934.69;1710239;83;21161;-60
2020/12/23 03:59:31;;;;;;;17.00;9.98;;;;;;;-1.80;77.73;99928.31;1702837;83;21170;-60
2020/12/23 04:01:59;;;;;;;18.52;10.45;;;;;;;-1.79;77.92;99931.31;1693340;83;21813;-60
2020/12/23 04:04:26;;;;;;;19.92;11.50;;;;;;;-1.80;77.94;99924.31;1693702;83;21327;-61
2020/12/23 04:06:54;;;;;;;18.45;11.08;;;;;;;-1.78;78.05;99920.97;1701361;83;21137;-60
2020/12/23 04:09:21;;;;;;;18.92;10.98;;;;;;;-1.79;78.12;99919.31;1674933;83;21284;-60
2020/12/23 04:11:48;;;;;;;18.62;10.40;;;;;;;-1.75;78.04;99922.75;1717970;83;21169;-60
2020/12/23 04:14:16;;;;;;;17.40;10.43;;;;;;;-1.79;78.04;99908.13;1720392;83;21576;-61
2020/12/23 04:16:43;;;;;;;17.07;9.58;;;;;;;-1.79;78.10;99912.13;1722729;83;21133;-61
2020/12/23 04:19:10;;;;;;;17.10;9.20;;;;;;;-1.77;78.03;99911.42;1718279;83;21286;-60
2020/12/23 04:21:38;;;;;;;20.85;11.83;;;;;;;-1.78;78.06;99909.80;1722594;83;21315;-61
2020/12/23 04:24:06;;;;;;;17.70;10.78;;;;;;;-1.75;78.03;99916.59;1707158;83;21173;-60
2020/12/23 04:26:33;;;;;;;20.75;12.25;;;;;;;-1.76;78.21;99906.41;1710352;83;21187;-60
2020/12/23 04:29:00;;;;;;;17.75;10.55;;;;;;;-1.69;78.02;99901.14;1720409;83;21169;-61
2020/12/23 04:31:27;;;;;;;21.62;12.55;;;;;;;-1.66;77.92;99910.94;1718465;83;21214;-61
2020/12/23 04:33:55;;;;;;;19.57;10.90;;;;;;;-1.66;78.00;99914.94;1717052;83;21157;-60
2020/12/23 04:36:22;;;;;;;20.37;11.68;;;;;;;-1.64;77.95;99912.09;1715493;83;21145;-60
2020/12/23 04:38:49;;;;;;;16.87;10.70;;;;;;;-1.63;77.87;99913.22;1712059;83;22086;-62
2020/12/23 04:41:17;;;;;;;17.95;11.48;;;;;;;-1.65;77.98;99913.94;1696048;83;21169;-60
2020/12/23 04:43:44;;;;;;;22.93;12.25;;;;;;;-1.67;78.12;99907.14;1720874;83;21577;-61
2020/12/23 04:46:14;;;;;;;19.27;10.65;;;;;;;-1.65;77.97;99912.59;1720958;83;21318;-60
2020/12/23 04:48:41;;;;;;;18.60;10.90;;;;;;;-1.66;78.17;99908.77;1653164;85;21185;-61
2020/12/23 04:51:09;;;;;;;19.85;11.85;;;;;;;-1.65;78.24;99904.59;1695512;83;21669;-61
2020/12/23 04:53:36;;;;;;;19.77;11.68;;;;;;;-1.66;78.11;99904.27;1720795;83;21132;-61
2020/12/23 04:56:04;;;;;;;17.73;10.25;;;;;;;-1.67;78.26;99902.63;1696405;83;21197;-61
2020/12/23 04:58:32;;;;;;;22.25;11.73;;;;;;;-1.68;78.14;99898.30;1722759;83;21173;-61
2020/12/23 05:00:59;;;;;;;22.30;11.78;;;;;;;-1.64;78.25;99904.09;1691280;84;21790;-60
2020/12/23 05:03:27;;;;;;;23.02;11.35;;;;;;;-1.68;78.34;99899.63;1693886;85;21193;-59
2020/12/23 05:05:54;;;;;;;23.75;12.47;;;;;;;-1.65;78.30;99901.92;1714465;83;21157;-61
2020/12/23 05:08:22;;;;;;;18.20;10.78;;;;;;;-1.67;78.43;99906.64;1696954;84;21161;-61
2020/12/23 05:10:50;;;;;;;22.25;11.83;;;;;;;-1.65;78.33;99891.24;1646347;84;21189;-61
2020/12/23 05:13:17;;;;;;;23.60;13.60;;;;;;;-1.65;78.49;99899.25;1692231;84;21405;-61
2020/12/23 05:15:44;;;;;;;24.20;12.40;;;;;;;-1.67;78.61;99895.95;1709135;84;21207;-61
2020/12/23 05:18:12;;;;;;;23.62;12.90;;;;;;;-1.66;78.74;99896.76;1704185;84;21296;-61
2020/12/23 05:20:39;;;;;;;27.95;13.88;;;;;;;-1.65;78.50;99888.58;1707302;84;21203;-62
2020/12/23 05:23:06;;;;;;;25.90;13.75;;;;;;;-1.64;78.67;99887.56;1709102;84;21189;-61
2020/12/23 05:25:35;;;;;;;24.45;11.95;;;;;;;-1.59;78.62;99888.31;1700534;83;21283;-60
2020/12/23 05:28:02;;;;;;;24.72;13.40;;;;;;;-1.64;78.86;99888.07;1695662;84;21600;-60
2020/12/23 05:30:30;;;;;;;23.45;13.45;;;;;;;-1.65;78.74;99889.91;1629407;85;21637;-61
2020/12/23 05:32:58;;;;;;;28.55;14.58;;;;;;;-1.57;78.63;99885.80;1689379;84;21141;-61
2020/12/23 05:35:25;;;;;;;26.23;13.70;;;;;;;-1.58;78.80;99897.48;1707483;84;21172;-61
2020/12/23 05:37:52;;;;;;;23.75;12.90;;;;;;;-1.54;78.72;99888.08;1637645;84;21351;-60
2020/12/23 05:40:20;;;;;;;24.55;13.85;;;;;;;-1.56;78.64;99884.75;1701267;84;21620;-61
2020/12/23 05:42:48;;;;;;;24.12;13.15;;;;;;;-1.57;78.83;99881.79;1691299;83;21166;-61
2020/12/23 05:45:15;;;;;;;26.35;14.18;;;;;;;-1.59;78.92;99890.48;1661320;84;21295;-61
2020/12/23 05:47:42;;;;;;;25.88;14.20;;;;;;;-1.57;78.97;99876.45;1707453;84;21189;-60
2020/12/23 05:50:10;;;;;;;25.12;14.70;;;;;;;-1.61;79.15;99868.50;1693079;84;21145;-61
2020/12/23 05:52:38;;;;;;;27.30;15.13;;;;;;;-1.55;79.09;99865.06;1707088;84;21634;-61
2020/12/23 05:55:14;;;;;;;29.02;14.47;;;;;;;-1.57;79.36;99862.27;1703798;84;21542;-60
2020/12/23 05:57:42;;;;;;;30.70;15.45;;;;;;;-1.57;79.49;99872.45;1696545;84;21149;-60
2020/12/23 06:00:10;;;;;;;31.10;16.40;;;;;;;-1.55;79.72;99871.73;1709432;84;21197;-61
2020/12/23 06:03:09;;;;;;;29.12;17.00;;;;;;;-1.59;80.07;99873.63;1709224;84;21304;-61
2020/12/23 06:05:36;;;;;;;29.48;16.02;;;;;;;-1.59;80.45;99865.63;1701892;84;21883;-63
2020/12/23 06:08:03;;;;;;;29.05;15.18;;;;;;;-1.61;80.88;99852.48;1719410;81;21282;-59
2020/12/23 06:10:34;;;;;;;30.00;16.97;;;;;;;-1.66;81.19;99842.88;1716084;82;21671;-60
2020/12/23 06:13:12;;;;;;;33.92;17.35;;;;;;;-1.64;81.50;99854.20;1696479;83;21165;-61
2020/12/23 06:15:41;;;;;;;31.50;16.48;;;;;;;-1.68;81.80;99846.25;1709621;83;21165;-60
2020/12/23 06:18:16;;;;;;;34.55;17.23;;;;;;;-1.67;81.99;99834.56;1692699;85;21197;-59
2020/12/23 06:20:45;;;;;;;28.12;14.50;;;;;;;-1.67;82.12;99833.23;1720214;83;21326;-60
2020/12/23 06:23:26;;;;;;;34.38;17.23;;;;;;;-1.70;82.24;99833.59;1720292;83;21287;-60
2020/12/23 06:25:53;;;;;;;26.97;15.30;;;;;;;-1.66;82.26;99836.20;1722529;82;21215;-60
2020/12/23 06:30:51;;;;;;;32.60;17.45;;;;;;;-1.65;82.60;99828.52;1801511;79;22641;-61
2020/12/23 06:33:20;;;;;;;30.02;15.03;;;;;;;-1.71;82.64;99831.95;1760815;81;21140;-62
2020/12/23 06:35:48;;;;;;;29.90;15.65;;;;;;;-1.72;82.76;99847.64;1757039;80;21185;-61
2020/12/23 06:38:22;;;;;;;30.70;17.12;;;;;;;-1.66;82.57;99846.05;1743657;81;21572;-61
2020/12/23 06:40:59;;;;;;;32.20;16.80;;;;;;;-1.62;82.43;99848.16;1727312;82;21197;-61
2020/12/23 06:43:55;;;;;;;29.72;15.55;;;;;;;-1.61;82.42;99844.47;1725874;83;21186;-61
2020/12/23 06:46:23;;;;;;;31.17;17.02;;;;;;;-1.62;82.32;99838.80;1756867;81;21248;-61
2020/12/23 06:48:50;;;;;;;32.42;17.30;;;;;;;-1.56;82.15;99839.91;1725249;83;21209;-61
2020/12/23 06:51:40;;;;;;;32.85;16.73;;;;;;;-1.55;82.18;99846.37;1721870;83;21197;-61
2020/12/23 06:54:07;;;;;;;28.52;15.00;;;;;;;-1.57;82.15;99834.23;1733511;81;21178;-61
2020/12/23 06:56:45;;;;;;;32.83;17.73;;;;;;;-1.57;82.07;99842.25;1723223;82;21191;-61
2020/12/23 06:59:46;;;;;;;31.37;15.30;;;;;;;-1.52;82.09;99851.83;1720885;83;21652;-62
2020/12/23 07:02:13;;;;;;;33.00;16.67;;;;;;;-1.49;81.89;99856.81;1727404;83;21160;-62
2020/12/23 07:04:48;;;;;;;31.75;15.95;;;;;;;-1.51;81.79;99856.16;1727572;83;21231;-62
2020/12/23 07:07:42;;;;;;;33.15;17.20;;;;;;;-1.49;81.84;99865.33;1726347;83;21196;-61
2020/12/23 07:10:14;;;;;;;29.70;16.82;;;;;;;-1.45;81.79;99866.59;1668801;83;21683;-61
2020/12/23 07:12:54;;;;;;;27.90;15.43;;;;;;;-1.41;81.80;99859.83;1708283;83;21303;-61
2020/12/23 07:15:25;;;;;;;35.15;16.93;;;;;;;-1.45;81.72;99856.72;1708675;83;21190;-61
2020/12/23 07:17:56;;;;;;;32.60;17.75;;;;;;;-1.44;81.54;99852.21;1706822;83;21184;-61
2020/12/23 07:20:24;;;;;;;34.67;17.05;;;;;;;-1.40;81.83;99858.31;1706499;82;21608;-61
2020/12/23 07:22:53;;;;;;;30.30;16.23;;;;;;;-1.42;81.93;99852.36;1730206;82;21156;-61
2020/12/23 07:25:25;;;;;;;31.25;15.60;;;;;;;-1.34;81.83;99860.72;1718964;82;21711;-61
2020/12/23 07:28:00;;;;;;;31.35;17.17;;;;;;;-1.29;81.88;99855.13;1711311;82;21590;-61
2020/12/23 07:30:27;;;;;;;30.57;15.60;;;;;;;-1.30;81.80;99844.63;1699772;84;21702;-60
2020/12/23 07:33:12;;;;;;;32.53;17.85;;;;;;;-1.28;81.68;99838.61;1678274;84;21202;-62
2020/12/23 07:35:39;;;;;;;33.83;16.73;;;;;;;-1.29;81.92;99839.11;1686575;84;21157;-60
2020/12/23 07:38:07;;;;;;;31.73;16.77;;;;;;;-1.33;82.05;99830.33;1751422;82;21161;-62
2020/12/23 07:40:35;;;;;;;32.73;18.10;;;;;;;-1.27;82.07;99824.20;1740800;82;21504;-61
2020/12/23 07:43:03;;;;;;;32.65;17.82;;;;;;;-1.28;82.15;99819.91;1723472;83;21162;-60
2020/12/23 07:45:31;;;;;;;33.15;18.37;;;;;;;-1.29;82.33;99821.75;1740486;82;21173;-61
2020/12/23 07:48:09;;;;;;;34.30;17.77;;;;;;;-1.26;82.24;99816.02;1725273;82;21649;-59
2020/12/23 07:50:39;;;;;;;34.00;19.20;;;;;;;-1.30;82.50;99812.08;1723280;83;21184;-60
2020/12/23 07:53:17;;;;;;;33.38;17.45;;;;;;;-1.30;82.76;99813.41;1726672;81;21310;-64
2020/12/23 07:56:01;;;;;;;35.75;17.77;;;;;;;-1.30;82.90;99812.08;1727553;82;21195;-64
2020/12/23 07:58:35;;;;;;;31.37;17.35;;;;;;;-1.15;82.71;99807.98;1816931;79;23103;-63
2020/12/23 08:01:07;;;;;;;31.25;17.10;;;;;;;-1.30;82.83;99804.06;1728888;81;21196;-62
2020/12/23 08:03:35;;;;;;;33.92;18.45;;;;;;;-1.30;82.90;99797.39;1731631;81;21596;-63
2020/12/23 08:06:11;;;;;;;32.80;17.70;;;;;;;-1.30;82.94;99806.73;1727885;81;21157;-59
2020/12/23 08:08:40;;;;;;;33.00;17.80;;;;;;;-1.31;82.95;99803.73;1731822;81;21314;-60
2020/12/23 08:11:10;;;;;;;34.38;17.02;;;;;;;-1.25;82.91;99804.83;1756505;81;21153;-60
2020/12/23 08:13:38;;;;;;;32.70;17.37;;;;;;;-1.23;82.78;99814.29;1741846;81;21136;-60
2020/12/23 08:16:10;;;;;;;33.73;18.30;;;;;;;-1.30;82.98;99801.39;1723864;83;21161;-60
2020/12/23 08:18:39;;;;;;;35.50;18.55;;;;;;;-1.32;83.04;99812.80;1701979;83;21309;-60
2020/12/23 08:21:18;;;;;;;33.15;18.20;;;;;;;-1.31;83.16;99809.62;1724932;81;21667;-60
2020/12/23 08:23:47;;;;;;;37.70;17.85;;;;;;;-1.26;82.96;99807.17;1723955;82;21183;-60
2020/12/23 08:26:14;;;;;;;33.58;17.50;;;;;;;-1.29;82.88;99799.05;1728651;81;21167;-60
2020/12/23 08:28:43;;;;;;;36.68;18.15;;;;;;;-1.29;82.93;99798.22;1706845;83;21182;-61
2020/12/23 08:31:27;;;;;;;35.43;17.90;;;;;;;-1.30;82.88;99792.55;1732089;81;21763;-61
2020/12/23 08:34:00;;;;;;;33.05;18.17;;;;;;;-1.23;82.84;99790.25;1714651;83;21183;-60
2020/12/23 08:36:30;;;;;;;34.58;18.32;;;;;;;-1.19;82.58;99790.69;1719635;83;21287;-60
2020/12/23 08:38:57;;;;;;;38.08;19.50;;;;;;;-1.25;82.86;99783.46;1705882;83;21327;-60
2020/12/23 08:41:26;;;;;;;35.95;18.48;;;;;;;-1.25;83.06;99787.47;1701923;84;21589;-60
2020/12/23 08:43:53;;;;;;;40.98;20.25;;;;;;;-1.27;83.14;99782.81;1689772;83;21197;-60
2020/12/23 08:46:24;;;;;;;30.85;17.73;;;;;;;-1.24;83.25;99785.92;1707796;83;21659;-60
2020/12/23 08:48:52;;;;;;;36.20;18.57;;;;;;;-1.19;83.21;99778.66;1723063;83;21200;-59
2020/12/23 08:51:23;;;;;;;35.23;18.05;;;;;;;-1.18;83.17;99780.33;1729202;83;21198;-60
2020/12/23 08:53:54;;;;;;;33.50;18.45;;;;;;;-1.22;83.66;99771.05;1703350;83;21166;-59
2020/12/23 08:56:29;;;;;;;32.70;18.32;;;;;;;-1.13;83.49;99765.86;1701477;83;21680;-60
2020/12/23 08:59:05;;;;;;;35.95;18.62;;;;;;;-1.18;83.83;99765.13;1707943;83;21604;-59
2020/12/23 09:01:35;;;;;;;31.37;17.87;;;;;;;-1.23;84.20;99759.53;1704135;83;21297;-59
2020/12/23 09:04:10;;;;;;;32.50;18.35;;;;;;;-1.12;83.98;99749.64;1716233;83;21154;-59
2020/12/23 09:06:40;;;;;;;31.52;17.98;;;;;;;-1.16;84.15;99754.23;1708597;83;21196;-59
2020/12/23 09:09:19;;;;;;;33.70;19.62;;;;;;;-1.16;84.08;99748.38;1712531;83;21291;-59
2020/12/23 09:11:51;;;;;;;33.20;19.75;;;;;;;-1.06;83.76;99752.86;1701386;84;21181;-58
2020/12/23 09:17:24;;;;;;;33.20;18.73;;;;;;;-1.01;83.80;99747.77;1811326;79;22856;-59
2020/12/23 09:20:03;;;;;;;34.60;18.92;;;;;;;-1.05;83.70;99740.33;1769781;80;21106;-59
2020/12/23 09:22:38;;;;;;;31.75;19.00;;;;;;;-1.08;83.77;99745.56;1760116;80;21102;-58
2020/12/23 09:25:18;;;;;;;36.10;19.00;;;;;;;-0.92;83.51;99744.94;1703579;83;21149;-59
2020/12/23 09:27:49;;;;;;;34.35;19.70;;;;;;;-0.97;83.55;99742.84;1698226;83;21304;-59
2020/12/23 09:30:37;;;;;;;29.57;17.17;;;;;;;-0.94;83.51;99740.28;1730210;82;21189;-58
2020/12/23 09:33:09;;;;;;;33.30;19.30;;;;;;;-0.91;83.05;99719.34;1694787;84;21185;-58
2020/12/23 09:35:37;;;;;;;35.08;18.73;;;;;;;-0.96;83.37;99732.98;1697761;84;21181;-58
2020/12/23 09:38:19;;;;;;;30.45;18.10;;;;;;;-0.90;83.29;99733.52;1724434;82;21153;-58
2020/12/23 09:40:54;;;;;;;34.70;20.08;;;;;;;-0.92;83.01;99704.31;1723838;83;21679;-59
2020/12/23 09:43:26;;;;;;;33.10;17.85;;;;;;;-0.92;83.33;99722.22;1724365;82;21155;-59
2020/12/23 09:45:55;;;;;;;29.87;18.12;;;;;;;-0.80;83.23;99724.12;1722026;82;21168;-59
2020/12/23 09:48:24;;;;;;;33.00;19.00;;;;;;;-0.79;83.19;99712.41;1723883;83;21192;-60
2020/12/23 09:50:54;;;;;;;28.73;15.83;;;;;;;-0.85;83.39;99710.52;1723955;82;21644;-59
2020/12/23 09:53:23;;;;;;;30.65;17.95;;;;;;;-0.81;83.32;99709.09;1724961;82;21585;-60
2020/12/23 09:55:52;;;;;;;31.35;18.62;;;;;;;-0.78;83.34;99710.03;1702537;83;21157;-59
2020/12/23 09:58:19;;;;;;;29.40;17.45;;;;;;;-0.85;83.52;99698.48;1716897;83;21165;-60
2020/12/23 10:00:47;;;;;;;32.08;18.37;;;;;;;-0.74;83.38;99697.09;1710442;83;21333;-59
2020/12/23 10:03:15;;;;;;;30.92;18.95;;;;;;;-0.74;83.44;99681.88;1728779;82;21173;-60
2020/12/23 10:05:42;;;;;;;27.85;17.92;;;;;;;-0.79;83.71;99684.34;1698469;83;21215;-59
2020/12/23 10:08:10;;;;;;;30.72;18.85;;;;;;;-0.69;83.37;99686.63;1725507;81;21692;-60
2020/12/23 10:10:38;;;;;;;27.52;17.75;;;;;;;-0.72;83.53;99687.87;1699090;83;21161;-59
2020/12/23 10:13:06;;;;;;;29.63;17.55;;;;;;;-0.69;83.46;99682.63;1724927;82;21601;-60
2020/12/23 10:15:34;;;;;;;31.35;18.00;;;;;;;-0.60;83.09;99676.89;1694227;83;21316;-59
2020/12/23 10:18:01;;;;;;;29.77;17.48;;;;;;;-0.65;83.28;99674.02;1691712;84;21187;-60
2020/12/23 10:20:28;;;;;;;28.75;18.25;;;;;;;-0.71;83.37;99673.45;1768279;81;21187;-59
2020/12/23 10:22:55;;;;;;;27.77;17.87;;;;;;;-0.62;83.16;99668.77;1761084;81;21543;-60
2020/12/23 10:25:22;;;;;;;26.12;15.88;;;;;;;-0.68;83.46;99674.92;1745087;81;21138;-59
2020/12/23 10:27:52;;;;;;;24.52;16.07;;;;;;;-0.70;83.56;99667.09;1751683;80;21161;-60
2020/12/23 10:30:19;;;;;;;33.63;19.07;;;;;;;-0.53;83.26;99671.55;1740896;80;21480;-60
2020/12/23 10:32:46;;;;;;;28.55;17.17;;;;;;;-0.53;83.21;99665.70;1742363;82;21187;-60
2020/12/23 10:35:13;;;;;;;26.90;16.67;;;;;;;-0.59;83.28;99661.67;1740630;82;21154;-59
2020/12/23 10:37:42;;;;;;;29.48;17.25;;;;;;;-0.51;83.04;99660.98;1741211;82;21523;-60
2020/12/23 10:40:09;;;;;;;27.55;17.55;;;;;;;-0.44;82.68;99660.17;1740608;82;21114;-61
2020/12/23 10:42:36;;;;;;;28.80;16.65;;;;;;;-0.47;82.79;99653.89;1752397;81;21158;-61
2020/12/23 10:45:06;;;;;;;25.48;15.83;;;;;;;-0.46;82.76;99652.88;1740687;82;21154;-59
2020/12/23 10:47:34;;;;;;;24.98;16.82;;;;;;;-0.40;82.43;99647.53;1742848;82;21158;-59
2020/12/23 10:50:02;;;;;;;27.55;16.75;;;;;;;-0.47;82.43;99649.38;1743103;81;21150;-59
2020/12/23 10:52:29;;;;;;;28.90;16.80;;;;;;;-0.50;82.76;99639.09;1742032;81;21150;-58
2020/12/23 10:54:58;;;;;;;26.97;17.35;;;;;;;-0.39;82.54;99641.68;1740770;82;21173;-62
2020/12/23 10:57:25;;;;;;;28.52;17.60;;;;;;;-0.44;82.56;99635.59;1742198;80;21540;-59
2020/12/23 10:59:53;;;;;;;25.70;16.10;;;;;;;-0.42;82.79;99639.38;1743327;80;21150;-60
2020/12/23 11:02:20;;;;;;;25.88;16.32;;;;;;;-0.30;82.32;99629.74;1740656;82;21580;-59
2020/12/23 11:04:47;;;;;;;26.02;15.35;;;;;;;-0.27;82.47;99631.50;1741954;80;21173;-60
2020/12/23 11:07:15;;;;;;;23.90;15.30;;;;;;;-0.33;82.43;99632.32;1754608;81;21285;-59
2020/12/23 11:09:43;;;;;;;25.23;16.15;;;;;;;-0.26;82.44;99630.98;1746853;81;21309;-59
2020/12/23 11:12:10;;;;;;;25.25;15.90;;;;;;;-0.23;82.35;99629.23;1741371;81;21731;-59
2020/12/23 11:14:38;;;;;;;25.40;16.27;;;;;;;-0.26;82.36;99625.64;1741894;82;21697;-59
2020/12/23 11:17:05;;;;;;;22.45;14.58;;;;;;;-0.20;82.25;99633.66;1742924;82;21175;-59
2020/12/23 11:19:33;;;;;;;26.93;17.07;;;;;;;-0.17;81.88;99621.20;1742873;82;21142;-59
2020/12/23 11:22:01;;;;;;;24.10;15.38;;;;;;;-0.25;82.23;99625.95;1742947;82;21159;-59
2020/12/23 11:24:28;;;;;;;26.73;16.45;;;;;;;-0.24;82.47;99632.93;1742578;82;21158;-59
2020/12/23 11:26:56;;;;;;;32.13;18.45;;;;;;;-0.08;82.06;99625.86;1742371;82;21159;-60
2020/12/23 11:29:23;;;;;;;24.63;15.63;;;;;;;-0.08;82.02;99623.17;1741142;81;21703;-60
2020/12/23 11:31:53;;;;;;;24.20;16.00;;;;;;;-0.08;82.00;99625.34;1740486;82;21180;-60